Time;durP1;ratioP1;P1;durP2;ratioP2;P2;SDS_P1;SDS_P2;PMS_P1;PMS_P2;Temp;Humidity;BMP_temperature;BMP_pressure;BME280_temperature;BME280_humidity;BME280_pressure;Samples;Min_cycle;Max_cycle;Signal;HPM_P1;HPM_P2
2022/02/09 00:00:11;;;;;;;3.08;1.77;;;;;;;7.18;76.38;100544.94;5172690;27;20035;-72
2022/02/09 00:03:00;;;;;;;6.72;2.85;;;;;;;7.22;76.58;100533.19;5173094;27;20432;-72
2022/02/09 00:05:42;;;;;;;4.60;2.08;;;;;;;7.20;76.69;100534.81;5173509;27;20042;-71
2022/02/09 00:08:12;;;;;;;3.58;1.95;;;;;;;7.22;76.12;100541.66;5172932;27;20038;-71
2022/02/09 00:10:44;;;;;;;3.92;1.80;;;;;;;7.23;76.87;100542.53;5172508;27;20057;-72
2022/02/09 00:16:06;;;;;;;3.97;1.90;;;;;;;7.25;76.69;100533.25;5172441;27;20046;-71
2022/02/09 00:18:44;;;;;;;3.97;2.30;;;;;;;7.23;77.07;100539.97;5172086;27;20381;-72
2022/02/09 00:29:39;;;;;;;3.75;1.90;;;;;;;7.25;77.31;100569.66;5164123;27;20038;-71
2022/02/09 00:37:56;;;;;;;3.20;1.90;;;;;;;7.28;77.22;100574.84;5124130;27;20046;-71
2022/02/09 00:59:47;;;;;;;3.28;2.10;;;;;;;7.33;76.84;100585.13;5157765;27;20488;-71
2022/02/09 01:39:42;;;;;;;4.15;1.80;;;;;;;7.33;77.11;100588.53;5156811;27;20492;-72
2022/02/09 01:55:32;;;;;;;4.00;1.95;;;;;;;7.37;76.96;100584.38;5157474;27;20047;-71
2022/02/09 01:58:02;;;;;;;3.40;1.90;;;;;;;7.34;76.78;100584.31;5156774;27;20053;-71
2022/02/09 02:00:31;;;;;;;3.50;1.92;;;;;;;7.34;76.81;100577.53;5156466;27;20046;-72
2022/02/09 02:03:01;;;;;;;3.45;1.70;;;;;;;7.32;77.37;100580.84;5156387;27;20042;-71
2022/02/09 02:05:31;;;;;;;3.67;2.00;;;;;;;7.25;77.26;100584.03;5156354;27;20035;-72
2022/02/09 02:08:01;;;;;;;3.80;1.92;;;;;;;7.26;77.74;100579.03;5156627;27;20387;-73
2022/02/09 02:10:40;;;;;;;3.85;2.00;;;;;;;7.28;77.17;100573.97;5156231;27;20050;-72
2022/02/09 02:13:32;;;;;;;4.45;1.80;;;;;;;7.27;77.84;100569.72;5156266;27;20495;-71
2022/02/09 02:16:17;;;;;;;4.15;2.15;;;;;;;7.22;77.33;100568.75;5156505;27;20129;-71
2022/02/09 02:18:51;;;;;;;4.15;2.08;;;;;;;7.22;77.83;100573.81;5155917;27;20078;-71
2022/02/09 02:21:35;;;;;;;4.10;1.95;;;;;;;7.23;77.69;100566.25;5156398;27;20043;-72
2022/02/09 02:38:04;;;;;;;5.87;2.00;;;;;;;7.26;77.66;100585.78;5155930;27;20099;-71
2022/02/09 02:59:32;;;;;;;3.95;2.08;;;;;;;7.36;78.01;100585.22;5155500;27;20042;-72
2022/02/09 03:10:29;;;;;;;3.95;1.95;;;;;;;7.38;77.75;100592.03;5155658;27;20039;-72
2022/02/09 03:13:02;;;;;;;3.13;1.90;;;;;;;7.39;77.65;100590.34;5155533;27;20503;-71
2022/02/09 03:15:36;;;;;;;3.60;1.80;;;;;;;7.37;77.36;100599.59;5155230;27;20099;-72
2022/02/09 03:18:30;;;;;;;4.25;2.10;;;;;;;7.35;77.18;100602.13;5155060;27;20095;-70
2022/02/09 03:21:06;;;;;;;2.90;1.60;;;;;;;7.30;77.19;100605.34;5155495;27;20065;-70
2022/02/09 03:23:46;;;;;;;4.18;1.90;;;;;;;7.28;78.00;100612.06;5155124;27;20047;-71
2022/02/09 03:47:52;;;;;;;3.95;1.88;;;;;;;7.33;77.43;100633.34;5154225;27;20045;-70
2022/02/09 03:50:33;;;;;;;3.43;1.87;;;;;;;7.32;78.08;100631.63;5155281;27;20047;-72
2022/02/09 03:58:35;;;;;;;3.45;1.83;;;;;;;7.24;78.22;100628.03;5154735;27;20085;-71
2022/02/09 04:01:04;;;;;;;5.63;1.83;;;;;;;7.25;78.05;100619.59;5154757;27;20441;-73
2022/02/09 04:03:33;;;;;;;4.10;1.77;;;;;;;7.25;78.05;100612.84;5155599;27;20407;-71
2022/02/09 04:06:02;;;;;;;5.10;2.10;;;;;;;7.28;78.01;100610.38;5158680;27;20087;-71
2022/02/09 04:08:35;;;;;;;3.53;1.77;;;;;;;7.26;78.19;100618.78;5158970;27;20038;-72
2022/02/09 04:11:10;;;;;;;3.33;1.80;;;;;;;7.27;78.09;100610.34;5158620;27;20302;-72
2022/02/09 04:13:50;;;;;;;5.22;2.10;;;;;;;7.28;77.97;100604.44;5158850;27;20073;-72
2022/02/09 04:16:33;;;;;;;2.83;1.65;;;;;;;7.27;78.18;100612.91;5158874;27;20051;-72
2022/02/09 04:19:10;;;;;;;4.07;2.05;;;;;;;7.27;77.82;100616.28;5158359;27;20076;-71
2022/02/09 04:37:50;;;;;;;4.15;2.15;;;;;;;7.24;78.48;100608.59;5158404;27;20046;-72
2022/02/09 04:40:44;;;;;;;7.10;2.72;;;;;;;7.19;78.37;100606.72;5158368;27;20034;-71
2022/02/09 04:43:38;;;;;;;3.65;2.17;;;;;;;7.15;78.65;100598.16;5157949;27;20039;-72
2022/02/09 04:51:36;;;;;;;6.25;2.47;;;;;;;7.23;78.87;100606.00;5137723;27;20486;-73
2022/02/09 04:54:22;;;;;;;3.80;2.03;;;;;;;7.18;78.86;100607.53;5158139;27;20121;-71
2022/02/09 04:56:56;;;;;;;6.00;2.35;;;;;;;7.19;78.91;100610.13;5158018;27;20073;-71
2022/02/09 04:59:34;;;;;;;4.28;1.90;;;;;;;7.24;79.50;100612.81;5157653;27;20039;-71
2022/02/09 05:02:33;;;;;;;4.15;2.17;;;;;;;7.28;78.86;100596.81;5157961;27;20054;-73
2022/02/09 05:18:53;;;;;;;8.10;3.70;;;;;;;7.42;78.50;100628.53;5157036;27;20058;-72
2022/02/09 05:24:11;;;;;;;7.18;2.67;;;;;;;7.39;78.50;100636.91;5136661;27;20376;-71
2022/02/09 05:26:46;;;;;;;13.32;7.13;;;;;;;7.38;78.51;100632.69;5157133;27;20073;-71
2022/02/09 05:29:15;;;;;;;17.10;6.47;;;;;;;7.36;78.48;100633.44;5157451;27;20087;-71
2022/02/09 05:31:44;;;;;;;12.30;5.63;;;;;;;7.32;78.47;100641.78;5157378;27;20038;-71
2022/02/09 05:34:15;;;;;;;13.13;7.33;;;;;;;7.31;78.49;100633.31;5157566;27;20636;-71
2022/02/09 05:36:44;;;;;;;13.68;8.07;;;;;;;7.28;78.00;100637.44;5157022;27;20043;-71
2022/02/09 05:39:13;;;;;;;6.73;3.00;;;;;;;7.26;78.70;100641.63;5157130;27;20061;-71
2022/02/09 05:41:45;;;;;;;;;;;;;;;7.25;78.52;100644.97;5157535;27;20441;-73
2022/02/09 05:44:15;;;;;;;4.50;2.45;;;;;;;7.21;78.87;100649.13;5157151;27;19922;-71
2022/02/09 05:49:37;;;;;;;4.45;2.33;;;;;;;7.15;78.60;100653.16;5156962;27;19926;-71
2022/02/09 05:52:17;;;;;;;5.57;2.72;;;;;;;7.13;78.98;100657.31;5156804;27;20086;-72
2022/02/09 05:55:07;;;;;;;7.75;3.38;;;;;;;7.12;79.17;100655.63;5156642;27;20070;-72
2022/02/09 05:57:46;;;;;;;6.40;3.20;;;;;;;7.02;79.83;100662.09;5157222;27;20445;-72
2022/02/09 06:00:17;;;;;;;5.95;2.72;;;;;;;6.96;79.85;100668.69;5156536;27;20526;-72
2022/02/09 06:02:46;;;;;;;6.07;3.35;;;;;;;6.93;80.12;100671.13;5156465;27;20091;-71
2022/02/09 06:05:17;;;;;;;8.02;3.60;;;;;;;6.87;79.91;100683.59;5156339;27;20084;-72
2022/02/09 06:07:53;;;;;;;6.85;3.47;;;;;;;6.87;80.23;100686.16;5156275;27;20380;-71
2022/02/09 06:10:26;;;;;;;6.40;2.50;;;;;;;6.88;80.17;100695.50;5156606;27;20070;-72
2022/02/09 06:13:10;;;;;;;5.30;3.20;;;;;;;6.85;80.15;100695.41;5137975;27;20444;-72
2022/02/09 06:16:02;;;;;;;4.47;3.00;;;;;;;6.84;80.61;100706.38;5156181;27;20046;-72
2022/02/09 06:21:12;;;;;;;6.20;3.08;;;;;;;6.72;80.35;100707.69;5156121;27;20042;-72
2022/02/09 06:23:41;;;;;;;6.82;2.83;;;;;;;6.73;80.85;100701.84;5156000;27;20050;-72
2022/02/09 06:26:10;;;;;;;4.70;3.03;;;;;;;6.75;80.76;100710.34;5155658;27;20499;-72
2022/02/09 06:28:39;;;;;;;5.73;2.83;;;;;;;6.77;80.72;100714.63;5155795;27;20038;-73
2022/02/09 06:31:08;;;;;;;4.67;3.27;;;;;;;6.75;81.21;100712.88;5156082;27;20495;-72
2022/02/09 06:33:37;;;;;;;5.33;3.03;;;;;;;6.74;81.49;100706.06;5156172;27;20605;-72
2022/02/09 06:36:09;;;;;;;5.80;3.15;;;;;;;6.72;80.79;100715.31;5156053;27;20375;-72
2022/02/09 06:38:40;;;;;;;6.97;3.33;;;;;;;6.72;81.49;100709.38;5156124;27;20067;-72
2022/02/09 06:41:10;;;;;;;5.50;2.88;;;;;;;6.71;81.10;100705.13;5156028;27;20042;-71
2022/02/09 06:43:39;;;;;;;7.47;2.92;;;;;;;6.68;81.67;100710.97;5155981;27;20073;-71
2022/02/09 06:46:07;;;;;;;5.10;3.10;;;;;;;6.69;81.35;100715.22;5155676;27;20042;-72
2022/02/09 06:48:36;;;;;;;4.50;3.07;;;;;;;6.77;81.23;100720.53;5155495;27;20043;-72
2022/02/09 06:51:09;;;;;;;5.32;2.53;;;;;;;6.82;81.63;100715.59;5155701;27;20043;-72
2022/02/09 06:53:46;;;;;;;5.55;3.40;;;;;;;6.85;81.45;100713.16;5155464;27;20047;-72
2022/02/09 06:56:26;;;;;;;5.30;3.40;;;;;;;6.88;81.40;100725.94;5155417;27;20077;-71
2022/02/09 06:59:10;;;;;;;3.80;2.47;;;;;;;6.88;81.91;100718.34;5155477;27;20077;-71
2022/02/09 07:01:40;;;;;;;5.57;3.10;;;;;;;6.89;81.41;100723.44;5155277;27;20042;-73
2022/02/09 07:04:09;;;;;;;4.30;2.58;;;;;;;6.91;81.35;100723.50;5155679;27;20035;-71
2022/02/09 07:06:41;;;;;;;6.22;2.80;;;;;;;6.92;81.65;100731.16;5155690;27;20138;-71
2022/02/09 07:09:12;;;;;;;5.25;2.78;;;;;;;6.95;81.25;100740.53;5155250;27;20039;-71
2022/02/09 07:11:40;;;;;;;5.10;3.00;;;;;;;6.98;81.56;100735.56;5155294;27;20096;-72
2022/02/09 07:14:10;;;;;;;4.70;3.13;;;;;;;6.99;81.14;100734.72;5155509;27;20038;-71
2022/02/09 07:16:39;;;;;;;6.53;3.08;;;;;;;6.97;80.88;100749.06;5155577;27;20403;-72
2022/02/09 07:19:09;;;;;;;5.38;3.08;;;;;;;7.01;81.03;100750.88;5155005;27;20100;-70
2022/02/09 07:21:40;;;;;;;4.50;3.03;;;;;;;7.02;81.13;100752.59;5155718;27;20483;-72
2022/02/09 07:24:13;;;;;;;5.20;2.95;;;;;;;7.10;80.93;100753.72;5155469;27;20500;-72
2022/02/09 07:26:50;;;;;;;7.10;3.65;;;;;;;7.10;81.09;100748.63;5155146;27;20513;-72
2022/02/09 07:29:20;;;;;;;5.55;3.08;;;;;;;7.13;80.66;100747.03;5155630;27;20043;-72
2022/02/09 07:31:49;;;;;;;5.35;2.70;;;;;;;7.18;81.08;100747.16;5155231;27;20074;-72
2022/02/09 07:34:18;;;;;;;4.90;2.80;;;;;;;7.23;80.59;100743.97;5155095;27;20050;-72
2022/02/09 07:36:47;;;;;;;4.90;2.65;;;;;;;7.28;80.63;100744.09;5155350;27;20043;-72
2022/02/09 07:39:19;;;;;;;3.80;2.13;;;;;;;7.32;79.96;100738.28;5156904;27;20027;-73
2022/02/09 07:41:50;;;;;;;5.63;3.25;;;;;;;7.37;80.44;100741.81;5159400;27;20639;-71
2022/02/09 07:44:34;;;;;;;4.80;2.45;;;;;;;7.22;80.55;100705.84;5160007;27;20087;-71
2022/02/09 07:47:20;;;;;;;5.18;3.10;;;;;;;7.54;80.03;100735.53;5159147;27;20107;-72
2022/02/09 07:50:09;;;;;;;4.38;2.40;;;;;;;7.55;79.87;100727.13;5140823;27;20051;-71
2022/02/09 07:52:51;;;;;;;3.92;2.63;;;;;;;7.61;79.27;100741.63;5159071;27;20039;-71
2022/02/09 07:55:21;;;;;;;4.63;2.70;;;;;;;7.71;79.23;100747.03;5158939;27;20054;-71
2022/02/09 07:57:51;;;;;;;5.43;2.75;;;;;;;7.77;79.16;100747.22;5158830;27;20046;-72
2022/02/09 08:00:20;;;;;;;5.47;2.30;;;;;;;7.85;79.11;100747.41;5155625;27;20073;-72
2022/02/09 08:02:52;;;;;;;5.07;2.60;;;;;;;7.89;78.47;100755.16;5156478;27;20079;-71
2022/02/09 08:05:21;;;;;;;5.43;3.45;;;;;;;7.97;78.30;100748.59;5158326;27;20039;-72
2022/02/09 08:07:50;;;;;;;4.75;2.90;;;;;;;8.03;77.74;100743.69;5158920;27;20039;-72
2022/02/09 08:10:26;;;;;;;3.43;1.87;;;;;;;8.11;78.00;100741.31;5158580;27;20540;-72
2022/02/09 08:26:54;;;;;;;4.28;2.40;;;;;;;8.48;77.20;100745.72;5164842;27;20026;-71
2022/02/09 08:29:29;;;;;;;5.13;2.28;;;;;;;8.49;76.20;100739.81;5155409;27;20035;-72
2022/02/09 08:34:37;;;;;;;5.40;2.58;;;;;;;8.54;76.07;100738.25;5158032;27;20047;-72
2022/02/09 08:37:08;;;;;;;7.13;2.72;;;;;;;8.59;75.71;100731.59;5158576;27;20043;-71
2022/02/09 08:39:47;;;;;;;4.75;2.20;;;;;;;8.59;75.34;100737.50;5158402;27;20047;-71
2022/02/09 08:42:18;;;;;;;7.13;2.55;;;;;;;8.62;75.87;100732.50;5157927;27;20039;-71
2022/02/09 08:44:46;;;;;;;6.57;2.35;;;;;;;8.70;75.57;100740.31;5158262;27;20446;-72
2022/02/09 08:47:16;;;;;;;3.07;2.00;;;;;;;8.78;75.10;100739.66;5158232;27;20395;-72
2022/02/09 08:49:45;;;;;;;4.60;2.60;;;;;;;8.83;74.85;100760.13;5138813;27;20046;-71
2022/02/09 08:52:14;;;;;;;5.63;3.00;;;;;;;8.78;74.72;100759.19;5154866;27;20043;-72
2022/02/09 08:54:43;;;;;;;4.85;2.50;;;;;;;8.68;74.81;100759.78;5157103;27;20137;-72
2022/02/09 08:57:12;;;;;;;4.10;1.77;;;;;;;8.66;74.51;100751.25;5154840;27;20088;-72
2022/02/09 08:59:43;;;;;;;6.45;2.70;;;;;;;8.72;74.29;100756.47;5156975;27;20045;-72
2022/02/09 09:02:15;;;;;;;5.97;2.90;;;;;;;8.74;74.60;100757.38;5157662;27;20135;-72
2022/02/09 09:04:48;;;;;;;4.20;2.42;;;;;;;8.79;74.22;100755.81;5157902;27;20051;-72
2022/02/09 09:07:22;;;;;;;4.45;2.25;;;;;;;8.77;75.21;100752.38;5157463;27;20046;-71
2022/02/09 09:10:03;;;;;;;3.80;2.17;;;;;;;8.78;74.59;100756.66;5155995;27;20066;-72
2022/02/09 09:58:38;;;;;;;6.60;2.90;;;;;;;10.17;70.41;100707.72;5154975;27;20045;-71
2022/02/09 10:01:21;;;;;;;4.07;1.85;;;;;;;10.21;70.47;100712.91;5155015;27;20487;-73
2022/02/09 10:04:10;;;;;;;3.22;1.70;;;;;;;10.18;70.57;100714.53;5126039;27;20050;-71
2022/02/09 10:34:46;;;;;;;4.45;2.00;;;;;;;9.72;71.12;100705.16;5136004;27;20043;-72
2022/02/09 10:37:27;;;;;;;4.60;2.30;;;;;;;9.72;70.85;100705.16;5134852;27;20042;-71
2022/02/09 10:39:59;;;;;;;4.57;2.42;;;;;;;9.75;71.18;100695.88;5134636;27;20051;-72
2022/02/09 10:42:37;;;;;;;6.00;2.25;;;;;;;9.76;71.06;100696.75;5138502;27;20043;-73
2022/02/09 10:45:31;;;;;;;3.65;1.83;;;;;;;9.69;70.76;100693.22;5116527;27;20047;-69
2022/02/09 10:48:01;;;;;;;4.82;1.92;;;;;;;9.65;71.35;100698.22;5126330;27;20047;-71
2022/02/09 10:50:33;;;;;;;3.22;1.70;;;;;;;9.64;71.58;100696.50;5135020;27;20043;-70
2022/02/09 10:53:06;;;;;;;5.00;1.98;;;;;;;9.61;70.93;100696.44;5135178;27;20043;-71
2022/02/09 10:55:39;;;;;;;3.70;1.67;;;;;;;9.55;71.54;100696.34;5145729;27;20053;-71
2022/02/09 10:58:11;;;;;;;3.20;1.70;;;;;;;9.57;71.13;100704.88;5155939;27;20399;-71
2022/02/09 11:00:43;;;;;;;5.35;2.00;;;;;;;9.55;71.51;100697.19;5155451;27;20111;-72
2022/02/09 11:03:18;;;;;;;3.35;1.60;;;;;;;9.54;71.50;100694.63;5155510;27;20434;-70
2022/02/09 11:05:49;;;;;;;3.85;1.83;;;;;;;9.52;71.08;100701.38;5120344;27;20066;-72
2022/02/09 11:08:20;;;;;;;4.32;2.15;;;;;;;9.52;71.20;100696.28;5155253;27;20484;-71
2022/02/09 11:10:50;;;;;;;3.45;1.80;;;;;;;9.41;71.89;100699.47;5155295;27;20042;-72
2022/02/09 11:13:20;;;;;;;3.03;1.73;;;;;;;9.25;71.77;100691.47;5155392;27;20047;-71
2022/02/09 11:15:50;;;;;;;2.90;1.65;;;;;;;9.13;72.73;100684.44;5155307;27;20046;-73
2022/02/09 11:18:22;;;;;;;2.42;1.50;;;;;;;9.21;72.15;100695.63;5153226;27;20073;-70
2022/02/09 11:21:11;;;;;;;3.63;1.70;;;;;;;9.29;72.31;100694.13;5155185;27;20047;-72
2022/02/09 11:23:58;;;;;;;3.20;1.67;;;;;;;9.42;72.55;100691.00;5155092;27;20049;-72
2022/02/09 11:26:41;;;;;;;3.65;1.90;;;;;;;9.46;72.17;100691.91;5155489;27;20441;-72
2022/02/09 11:29:35;;;;;;;3.92;1.80;;;;;;;9.52;72.77;100691.19;5136961;27;20053;-72
2022/02/09 11:32:30;;;;;;;4.25;1.80;;;;;;;9.55;71.75;100689.53;5154939;27;20075;-71
2022/02/09 11:35:32;;;;;;;3.03;1.77;;;;;;;9.59;72.12;100686.25;5154945;27;20087;-69
2022/02/09 11:40:53;;;;;;;7.03;2.45;;;;;;;9.73;71.63;100682.25;5155035;27;20045;-70
2022/02/09 11:43:45;;;;;;;5.50;2.38;;;;;;;9.90;71.76;100680.00;5152868;27;20487;-70
2022/02/09 12:01:01;;;;;;;4.97;2.00;;;;;;;10.14;69.67;100670.28;5155068;27;20431;-69
2022/02/09 12:09:18;;;;;;;3.58;1.45;;;;;;;10.12;69.75;100656.63;5148833;27;20067;-69
2022/02/09 12:12:01;;;;;;;3.13;1.50;;;;;;;10.24;69.30;100651.75;5146338;27;20046;-70
2022/02/09 12:14:55;;;;;;;2.92;1.70;;;;;;;10.27;69.28;100649.22;5154692;27;20068;-69
2022/02/09 12:17:33;;;;;;;4.00;1.60;;;;;;;10.27;69.36;100641.56;5154265;27;20038;-69
2022/02/09 12:20:09;;;;;;;3.83;1.40;;;;;;;10.32;68.75;100641.66;5154742;27;20091;-69
2022/02/09 12:22:46;;;;;;;2.53;1.48;;;;;;;10.27;68.83;100649.22;5154789;27;20057;-70
2022/02/09 12:25:15;;;;;;;2.53;1.33;;;;;;;10.28;68.58;100653.50;5155921;27;20043;-70
2022/02/09 12:27:51;;;;;;;3.35;1.48;;;;;;;10.28;68.84;100653.50;5152797;27;20047;-70
2022/02/09 12:30:23;;;;;;;2.55;1.15;;;;;;;10.31;68.37;100653.56;5152359;27;20580;-70
2022/02/09 12:32:52;;;;;;;2.00;1.10;;;;;;;10.20;68.40;100655.06;5158190;27;20492;-70
2022/02/09 12:35:22;;;;;;;3.05;1.40;;;;;;;10.16;68.70;100649.88;5155514;27;20074;-69
2022/02/09 12:37:54;;;;;;;3.20;1.70;;;;;;;10.13;68.64;100653.22;5144380;27;20552;-69
2022/02/09 12:40:27;;;;;;;2.25;1.20;;;;;;;10.06;68.59;100641.19;5146834;27;20377;-69
2022/02/09 12:42:58;;;;;;;2.25;1.20;;;;;;;10.13;68.79;100653.22;5137467;27;20067;-70
2022/02/09 12:45:31;;;;;;;2.83;1.30;;;;;;;10.24;68.21;100648.31;5137210;27;20055;-69
2022/02/09 12:48:05;;;;;;;2.35;1.33;;;;;;;10.23;68.91;100639.81;5137208;27;20047;-69
2022/02/09 12:50:40;;;;;;;2.53;1.30;;;;;;;10.24;68.23;100638.97;5137413;27;20072;-68
2022/02/09 12:53:10;;;;;;;1.60;1.15;;;;;;;10.25;68.06;100643.22;5100749;28;20057;-70
2022/02/09 12:55:42;;;;;;;2.33;1.20;;;;;;;10.27;68.59;100641.56;5116460;28;20047;-70
2022/02/09 12:58:12;;;;;;;2.92;1.20;;;;;;;10.28;68.48;100647.53;5116800;28;20051;-69
2022/02/09 13:00:45;;;;;;;3.03;1.40;;;;;;;10.24;68.59;100638.97;5116313;28;20048;-69
2022/02/09 13:03:18;;;;;;;2.42;1.50;;;;;;;10.23;68.77;100634.69;5116328;28;20096;-69
2022/02/09 13:05:52;;;;;;;2.22;1.40;;;;;;;10.28;68.60;100633.09;5134859;27;20086;-69
2022/02/09 13:08:23;;;;;;;2.85;1.42;;;;;;;10.21;68.61;100631.28;5131739;27;20058;-69
2022/02/09 13:11:01;;;;;;;2.60;1.33;;;;;;;10.17;68.94;100628.66;5136916;27;20047;-69
2022/02/09 13:13:32;;;;;;;4.03;2.13;;;;;;;10.02;68.90;100625.00;5136975;27;20047;-69
2022/02/09 13:16:12;;;;;;;6.32;3.15;;;;;;;9.91;69.25;100628.19;5136975;27;20035;-68
2022/02/09 13:19:00;;;;;;;;;;;;;;;9.93;69.80;100618.88;5136910;27;20047;-70
2022/02/09 13:22:20;;;;;;;4.40;2.30;;;;;;;9.88;70.16;100620.47;5135274;27;19919;-70
2022/02/09 14:11:11;;;;;;;4.45;2.10;;;;;;;9.60;71.36;100610.66;5135257;27;20125;-69
2022/02/09 14:16:57;;;;;;;8.43;3.88;;;;;;;9.61;71.70;100609.78;5133047;27;20043;-69
2022/02/09 14:23:44;;;;;;;5.80;3.03;;;;;;;9.53;72.45;100613.88;5124151;27;20496;-70
2022/02/09 14:35:51;;;;;;;6.72;3.00;;;;;;;9.61;72.37;100614.91;5135128;27;20055;-70
2022/02/09 14:50:09;;;;;;;4.78;2.25;;;;;;;9.73;72.59;100600.69;5134518;27;20051;-69
2022/02/09 14:52:30;;;;;;;3.78;1.90;;;;;;;9.75;72.14;100601.56;5134801;27;20046;-70
2022/02/09 14:55:11;;;;;;;4.00;2.28;;;;;;;9.80;72.33;100606.75;5134839;27;20134;-69
2022/02/09 14:57:53;;;;;;;4.35;2.30;;;;;;;9.76;72.01;100610.94;5134883;27;20062;-70
2022/02/09 15:00:24;;;;;;;5.32;2.75;;;;;;;9.72;71.74;100613.38;5134720;27;20051;-70
2022/02/09 15:03:03;;;;;;;4.90;2.63;;;;;;;9.69;71.52;100619.31;5134695;27;20519;-72
2022/02/09 15:08:19;;;;;;;5.30;2.70;;;;;;;9.63;71.99;100618.31;5134868;27;20439;-72
2022/02/09 15:11:02;;;;;;;5.53;2.80;;;;;;;9.66;72.51;100614.16;5134707;27;20133;-72
2022/02/09 15:13:40;;;;;;;5.35;2.60;;;;;;;9.66;71.90;100606.50;5134832;27;20047;-72
2022/02/09 15:16:16;;;;;;;4.32;2.92;;;;;;;9.64;71.99;100614.97;5134947;27;20430;-70
2022/02/09 15:22:00;;;;;;;5.72;2.90;;;;;;;9.41;71.88;100617.94;5134460;28;20043;-71
2022/02/09 15:24:37;;;;;;;5.70;3.03;;;;;;;9.31;71.98;100616.03;5134366;28;20476;-71
2022/02/09 15:27:12;;;;;;;4.65;2.63;;;;;;;9.31;72.42;100616.03;5134673;28;20438;-72
2022/02/09 15:29:41;;;;;;;5.60;2.65;;;;;;;9.37;73.60;100616.16;5134317;28;20043;-72
2022/02/09 15:32:19;;;;;;;6.20;2.60;;;;;;;9.38;73.31;100610.22;5134311;28;20131;-71
2022/02/09 15:34:52;;;;;;;4.90;2.85;;;;;;;9.39;73.50;100614.50;5134299;28;20070;-72
2022/02/09 15:37:28;;;;;;;5.03;3.10;;;;;;;9.38;73.63;100610.22;5134350;28;20054;-72
2022/02/09 15:40:05;;;;;;;3.47;2.00;;;;;;;9.35;73.78;100612.75;5134396;28;20492;-72
2022/02/09 16:07:14;;;;;;;5.85;3.28;;;;;;;8.97;75.84;100628.94;5138144;27;20054;-70
2022/02/09 16:09:36;;;;;;;9.38;4.35;;;;;;;8.93;75.09;100624.59;5137849;27;20468;-71
2022/02/09 16:22:51;;;;;;;8.82;4.80;;;;;;;8.93;75.42;100595.72;5137836;27;20040;-72
2022/02/09 16:25:30;;;;;;;14.55;5.90;;;;;;;8.89;74.71;100594.81;5137825;27;20126;-71
2022/02/09 16:33:27;;;;;;;11.75;6.10;;;;;;;8.78;75.78;100597.13;5137617;27;20047;-71
2022/02/09 16:44:16;;;;;;;12.57;6.88;;;;;;;8.66;75.37;100590.94;5133010;27;20360;-71
2022/02/09 16:44:37;;;;;;;11.68;6.82;;;;;;;8.54;76.40;100596.59;5131985;27;20061;-71
2022/02/09 16:47:17;;;;;;;13.27;7.22;;;;;;;8.50;76.17;100599.03;5131861;27;20126;-70
2022/02/09 16:49:55;;;;;;;12.55;7.05;;;;;;;8.42;75.53;100595.50;5131840;28;20047;-71
2022/02/09 16:52:29;;;;;;;10.85;6.75;;;;;;;8.34;76.74;100591.91;5131769;27;20039;-70
2022/02/09 16:55:21;;;;;;;12.50;6.90;;;;;;;8.22;75.91;100591.59;5131972;28;20047;-71
2022/02/09 17:15:30;;;;;;;9.63;5.50;;;;;;;7.29;76.94;100596.03;5131805;27;20035;-71
2022/02/09 17:19:23;;;;;;;11.10;5.80;;;;;;;6.89;77.44;100600.78;5131276;27;20122;-71
2022/02/09 17:21:52;;;;;;;16.60;7.97;;;;;;;6.68;77.67;100604.44;5131138;28;20070;-72
2022/02/09 17:24:22;;;;;;;11.80;7.82;;;;;;;6.52;77.41;100606.47;5130999;27;20044;-72
2022/02/09 17:26:53;;;;;;;16.70;7.97;;;;;;;6.50;78.12;100610.63;5131355;27;20104;-69
2022/02/09 17:29:29;;;;;;;15.88;7.85;;;;;;;6.42;78.77;100615.47;5131023;27;20497;-71
2022/02/09 17:32:07;;;;;;;17.50;8.50;;;;;;;6.37;79.12;100617.00;5131000;27;20122;-70
2022/02/09 17:34:49;;;;;;;17.90;9.75;;;;;;;6.28;78.96;100621.78;5131025;27;20052;-70
2022/02/09 17:37:36;;;;;;;21.92;11.30;;;;;;;6.16;79.11;100611.25;5130529;27;20462;-71
2022/02/09 17:53:26;;;;;;;24.13;12.13;;;;;;;6.18;80.47;100629.91;5117011;28;20051;-72
2022/02/09 17:56:02;;;;;;;25.83;13.95;;;;;;;6.05;80.52;100627.78;5116939;28;20070;-71
2022/02/09 17:58:39;;;;;;;25.55;14.02;;;;;;;6.07;80.74;100626.16;5116766;28;20040;-70
2022/02/09 18:01:09;;;;;;;25.17;13.57;;;;;;;6.09;80.86;100624.56;5117052;27;20557;-72
2022/02/09 18:03:37;;;;;;;21.80;9.05;;;;;;;5.97;80.47;100629.22;5116640;28;20515;-71
2022/02/09 18:06:17;;;;;;;17.08;9.55;;;;;;;5.83;80.47;100635.47;5116936;28;20485;-72
2022/02/09 18:08:53;;;;;;;23.75;12.80;;;;;;;5.85;80.77;100628.81;5116725;28;20035;-72
2022/02/09 18:11:35;;;;;;;23.08;11.13;;;;;;;5.83;80.95;100636.31;5116863;28;20489;-72
2022/02/09 18:27:45;;;;;;;20.10;13.13;;;;;;;5.63;81.35;100627.22;5116582;28;20078;-72
2022/02/09 18:30:29;;;;;;;22.40;11.02;;;;;;;5.66;81.45;100631.50;5116290;28;20059;-71
2022/02/09 18:44:11;;;;;;;23.20;12.73;;;;;;;5.69;81.49;100631.59;5116253;27;20040;-71
2022/02/09 18:46:59;;;;;;;27.88;12.70;;;;;;;5.68;81.33;100624.81;5115947;28;20089;-72
2022/02/09 19:03:00;;;;;;;19.73;10.27;;;;;;;5.95;81.20;100628.31;5115866;28;20096;-71
2022/02/09 19:05:34;;;;;;;20.80;10.13;;;;;;;5.96;81.47;100632.56;5115586;28;20126;-70
2022/02/09 19:08:17;;;;;;;21.95;10.05;;;;;;;5.97;81.47;100622.47;5115475;28;20397;-70
2022/02/09 19:16:35;;;;;;;18.50;9.75;;;;;;;5.98;81.54;100628.41;5115600;28;20047;-70
2022/02/09 19:19:22;;;;;;;17.88;10.23;;;;;;;5.89;81.27;100633.16;5115121;28;20039;-70
2022/02/09 19:27:34;;;;;;;25.50;12.23;;;;;;;5.89;81.49;100625.56;5115077;28;20048;-71
2022/02/09 19:30:08;;;;;;;26.45;13.27;;;;;;;5.90;81.41;100632.38;5115010;28;20108;-71
2022/02/09 19:41:05;;;;;;;20.10;11.00;;;;;;;5.92;81.76;100628.22;5115191;28;20420;-71
2022/02/09 19:46:29;;;;;;;25.42;13.02;;;;;;;5.78;81.35;100621.78;5114710;28;20139;-72
2022/02/09 19:49:05;;;;;;;25.88;12.90;;;;;;;5.70;81.45;100623.19;5114922;28;20097;-72
2022/02/09 19:51:44;;;;;;;24.45;12.48;;;;;;;5.64;81.39;100628.06;5114609;28;20044;-70
2022/02/09 19:54:27;;;;;;;27.20;13.68;;;;;;;5.51;81.40;100616.66;5113636;28;20092;-71
2022/02/09 19:57:02;;;;;;;28.00;13.40;;;;;;;5.50;81.48;100616.59;5115197;28;20062;-71
2022/02/09 19:59:34;;;;;;;23.42;12.07;;;;;;;5.43;81.54;100618.91;5114479;28;20048;-71
2022/02/09 20:02:06;;;;;;;27.67;12.93;;;;;;;5.31;81.36;100618.50;5114557;28;20052;-71
2022/02/09 20:04:36;;;;;;;24.92;13.57;;;;;;;5.31;82.02;100618.50;5114352;28;20108;-72
2022/02/09 20:07:07;;;;;;;28.17;14.23;;;;;;;5.22;82.07;100597.94;5114414;28;20473;-70
2022/02/09 20:09:36;;;;;;;25.05;12.38;;;;;;;5.33;81.82;100611.81;5114941;28;20063;-72
2022/02/09 20:12:07;;;;;;;19.40;11.13;;;;;;;5.31;82.07;100608.38;5100662;28;20131;-72
2022/02/09 20:14:36;;;;;;;24.20;11.93;;;;;;;5.18;82.06;100611.25;5113333;28;20065;-71
2022/02/09 20:17:05;;;;;;;28.13;13.37;;;;;;;4.97;81.99;100610.50;5113666;28;20119;-71
2022/02/09 20:19:35;;;;;;;24.73;12.63;;;;;;;4.94;81.95;100624.72;5125844;27;20705;-72
2022/02/09 20:22:04;;;;;;;24.95;12.63;;;;;;;4.88;82.12;100620.28;5112962;28;20043;-70
2022/02/09 20:24:34;;;;;;;;;;;;;;;4.87;82.21;100618.53;5114423;28;20052;-71
2022/02/09 20:27:05;;;;;;;19.35;11.45;;;;;;;4.87;82.10;100623.59;5113159;28;19970;-71
2022/02/09 20:29:37;;;;;;;27.65;12.05;;;;;;;4.84;82.25;100622.66;5102569;28;20040;-72
2022/02/09 20:32:15;;;;;;;21.83;12.02;;;;;;;4.67;81.97;100615.31;5114085;28;20040;-71
2022/02/09 20:34:51;;;;;;;22.13;11.27;;;;;;;4.66;82.33;100626.19;5114185;28;20055;-71
2022/02/09 20:37:23;;;;;;;20.30;11.18;;;;;;;4.63;81.94;100612.59;5113905;28;20062;-71
2022/02/09 20:40:04;;;;;;;18.67;10.40;;;;;;;4.52;81.99;100618.91;5114066;28;20035;-72
2022/02/09 20:42:33;;;;;;;20.52;10.77;;;;;;;4.47;82.20;100627.97;5114061;28;20497;-70
2022/02/09 20:45:09;;;;;;;16.50;7.80;;;;;;;4.49;82.16;100623.81;5114030;28;20039;-72
2022/02/09 20:47:44;;;;;;;18.80;9.55;;;;;;;4.46;82.38;100609.41;5114676;28;20397;-72
2022/02/09 20:50:13;;;;;;;20.73;10.18;;;;;;;4.53;82.11;100621.50;5093585;28;20040;-71
2022/02/09 20:52:42;;;;;;;19.80;10.50;;;;;;;4.57;82.50;100622.47;5093871;28;20098;-72
2022/02/09 20:55:12;;;;;;;18.10;9.68;;;;;;;4.62;82.31;100626.91;5093742;28;20043;-72
2022/02/09 20:57:41;;;;;;;21.00;10.98;;;;;;;4.58;82.82;100607.34;5093472;28;20048;-72